F/V Atalante — FVRQ — position and weather

sailwx.info

Track history (hours):
 
Tides and Currents Weather Stations Pressure Air Temp Water Temp Dewpoint Dewpoint Depression Visibility Wind Speed Wind Dir Waves Ship Positions

F/V Atalante

Last reported at 2017-May-24 02:57 UTC. Time now 2017-May-24 19:34 UTC.
Position N 45°54' W 001°43'.

Length 21 m; draft 3.9 m.

Type: . MMSI: 228854000.

Date/timePositionNaut miles runAvg speedWind from/ knotsBaromVisibWave heightAir tempDewpointWater temp
2017-May-24 02:57N 45°54' W 001°43'1 2.8
2017-May-24 02:25N 45°55' W 001°45'26 9.6
2017-May-23 23:43N 46°17' W 002°05'2 9.5
2017-May-23 23:30N 46°18' W 002°06'5 9.6
2017-May-23 23:00N 46°22' W 002°10'5 9.7
2017-May-23 22:30N 46°26' W 002°14'510.0
2017-May-23 21:59N 46°31' W 002°18'28 9.5
2017-May-23 19:00N 46°58' W 002°31'13 8.9
2017-May-23 17:30N 47°11' W 002°34'5 9.7
2017-May-23 17:00N 47°16' W 002°35'2 5.0
2017-May-23 16:30N 47°18' W 002°34'4 1.4
2017-May-23 14:00N 47°21' W 002°31'  
Track history (hours):
 
Tides and Currents Weather Stations Pressure Air Temp Water Temp Dewpoint Dewpoint Depression Visibility Wind Speed Wind Dir Waves Ship Positions

F/V Atalante

Last reported at 2017-May-24 02:57 UTC. Time now 2017-May-24 19:34 UTC.
Position N 45°54' W 001°43'.

Length 21 m; draft 3.9 m.

Type: . MMSI: 228854000.

Date/timePositionNaut miles runAvg speedWind from/ knotsBaromVisibWave heightAir tempDewpointWater temp
2017-May-24 02:57N 45°54' W 001°43'1 2.8
2017-May-24 02:25N 45°55' W 001°45'26 9.6
2017-May-23 23:43N 46°17' W 002°05'2 9.5
2017-May-23 23:30N 46°18' W 002°06'5 9.6
2017-May-23 23:00N 46°22' W 002°10'5 9.7
2017-May-23 22:30N 46°26' W 002°14'510.0
2017-May-23 21:59N 46°31' W 002°18'28 9.5
2017-May-23 19:00N 46°58' W 002°31'13 8.9
2017-May-23 17:30N 47°11' W 002°34'5 9.7
2017-May-23 17:00N 47°16' W 002°35'2 5.0
2017-May-23 16:30N 47°18' W 002°34'4 1.4
2017-May-23 14:00N 47°21' W 002°31'  

Dump ship's entire track history